Airport ID:9NM9
Update Time (UTC):08/12/2019 09:21
Wind Speed (Knots):1
Wind Direction (Magnetic):280
Temperature (°C):9
Dew Point (°C):5.4
Humidity (%):79.5
Altimeter (inHg):30.1
Density Altitude (Feet):
Visibility (Miles):10
Clouds (Hundreds of feet):OVC110
Present Weather:
METAR:METAR 9NM9 080920Z AUTO 00000KT 10SM OVC120 09/05 A3010 RMK AO2

The data displayed is for advisory purposes only and is not to be used for flight planning or operations.

This page is not automatically refreshed. Reload the page to see current data.